This is the latest recevied weather packets stored in our database for station/object PY2VE-13. If no packets are shown the sender has not sent any weather packets the latest 10 day(s).
| Time | Temp. | Humidity | Pressure | Rain* | Wind** | Luminosity | Snow |
|---|---|---|---|---|---|---|---|
| 1777691024 | 26.67° C | 48% | 1021.7 hPa | - | - | - | - |
| 1777690124 | 26.67° C | 48% | 1022 hPa | - | - | - | - |
| 1777689224 | 27.22° C | 47% | 1022 hPa | - | - | - | - |
| 1777688324 | 26.67° C | 48% | 1022.2 hPa | - | - | - | - |
| 1777687424 | 26.67° C | 47% | 1022.2 hPa | - | - | - | - |
| 1777686524 | 27.22° C | 47% | 1022.1 hPa | - | - | - | - |
| 1777685624 | 26.67° C | 47% | 1022.3 hPa | - | - | - | - |
| 1777684724 | 27.22° C | 46% | 1022.1 hPa | - | - | - | - |
| 1777683824 | 27.22° C | 45% | 1022.2 hPa | - | - | - | - |
| 1777682924 | 27.22° C | 45% | 1022.3 hPa | - | - | - | - |
| 1777682024 | 27.78° C | 45% | 1022.2 hPa | - | - | - | - |
| 1777681124 | 27.22° C | 45% | 1022.2 hPa | - | - | - | - |
| 1777680224 | 27.78° C | 45% | 1022.1 hPa | - | - | - | - |
| 1777679323 | 27.22° C | 46% | 1022.1 hPa | - | - | - | - |
| 1777678424 | 27.78° C | 45% | 1022 hPa | - | - | - | - |
| 1777677523 | 27.78° C | 45% | 1021.8 hPa | - | - | - | - |
| 1777676624 | 27.78° C | 45% | 1021.7 hPa | - | - | - | - |
| 1777675724 | 28.33° C | 44% | 1021.4 hPa | - | - | - | - |
| 1777674824 | 28.89° C | 43% | 1021.1 hPa | - | - | - | - |
| 1777673924 | 28.89° C | 43% | 1021 hPa | - | - | - | - |
| 1777673023 | 29.44° C | 43% | 1020.7 hPa | - | - | - | - |
| 1777672123 | 29.44° C | 43% | 1020.6 hPa | - | - | - | - |
| 1777671223 | 30° C | 42% | 1020.4 hPa | - | - | - | - |
| 1777670323 | 30° C | 42% | 1020.2 hPa | - | - | - | - |
| 1777669423 | 30° C | 42% | 1020.2 hPa | - | - | - | - |
* Rain since midnight (hover to see other rain measurements)
** Current wind speed in m/s (hover to see current wind gust speed)